Addisleigh Park, New York
Current Conditions -  °F | °C
As of 5:51 AM on Friday 24 Oct 2014 (Local Time) from KJFK Reporting Station
Broken Clouds Broken Clouds  
Wind Chill: 51°   Ceiling: 24000
Heat Index: 51°   Visibility: 10mi
Dew Point: 42°   Wind: 10mph
Humidity: 71%   Direction: 310°NW
Pressure: 29.79"   Gusts: NA
Location:  40.6565°N, 73.7829°W
Report Text: KJFK 240951Z 31009KT 10SM FEW042 SCT150 BKN240 11/06 A2979 RMK AO2 SLP087 T01060056 $
Loading
Personal Weather Stations






























Interactive Weather Map
Tropical Storm Tracking
New forecast layout! Learn more

10-Day Weather Forecast

Advertisements
Track Severe Weather on mobile